sensor_id;sensor_type;location;lat;lon;timestamp;pressure;altitude;pressure_sealevel;temperature;humidity
56334;BME280;42240;53.626;55.886;2023-02-04T00:00:06;79975.16;;;-145.10;100.00
56334;BME280;42240;53.626;55.886;2023-02-04T00:01:39;79969.22;;;-145.10;100.00
56334;BME280;42240;53.626;55.886;2023-02-04T00:03:13;79961.31;;;-145.10;100.00
56334;BME280;42240;53.626;55.886;2023-02-04T00:04:48;79955.38;;;-145.10;100.00
56334;BME280;42240;53.626;55.886;2023-02-04T00:06:21;79947.47;;;-145.10;100.00
56334;BME280;42240;53.626;55.886;2023-02-04T00:07:53;79963.28;;;-145.10;100.00
56334;BME280;42240;53.626;55.886;2023-02-04T00:09:26;79967.25;;;-145.10;100.00
56334;BME280;42240;53.626;55.886;2023-02-04T00:11:00;79943.50;;;-145.10;100.00
56334;BME280;42240;53.626;55.886;2023-02-04T00:12:33;79935.59;;;-145.10;100.00
56334;BME280;42240;53.626;55.886;2023-02-04T00:14:06;80044.44;;;-145.10;100.00
56334;BME280;42240;53.626;55.886;2023-02-04T00:15:39;80018.72;;;-145.10;100.00
56334;BME280;42240;53.626;55.886;2023-02-04T00:17:12;79971.22;;;-145.10;100.00
56334;BME280;42240;53.626;55.886;2023-02-04T00:18:45;79903.91;;;-145.10;100.00
56334;BME280;42240;53.626;55.886;2023-02-04T00:20:19;79905.91;;;-145.10;100.00
56334;BME280;42240;53.626;55.886;2023-02-04T00:21:52;79888.09;;;-145.10;100.00
56334;BME280;42240;53.626;55.886;2023-02-04T00:23:25;79872.25;;;-145.10;100.00
56334;BME280;42240;53.626;55.886;2023-02-04T00:24:58;79854.44;;;-145.10;100.00
56334;BME280;42240;53.626;55.886;2023-02-04T00:26:31;79832.69;;;-145.10;100.00
56334;BME280;42240;53.626;55.886;2023-02-04T00:28:04;79826.75;;;-145.10;100.00
56334;BME280;42240;53.626;55.886;2023-02-04T00:29:38;79806.94;;;-145.10;100.00
56334;BME280;42240;53.626;55.886;2023-02-04T00:31:11;79816.84;;;-145.10;100.00
56334;BME280;42240;53.626;55.886;2023-02-04T00:32:44;79820.81;;;-145.10;100.00
56334;BME280;42240;53.626;55.886;2023-02-04T00:34:17;79830.69;;;-145.10;100.00
56334;BME280;42240;53.626;55.886;2023-02-04T00:35:50;79816.84;;;-145.10;100.00
56334;BME280;42240;53.626;55.886;2023-02-04T00:37:25;79814.88;;;-145.10;100.00
56334;BME280;42240;53.626;55.886;2023-02-04T00:38:58;79806.94;;;-145.10;100.00
56334;BME280;42240;53.626;55.886;2023-02-04T00:40:32;79816.84;;;-145.10;100.00
56334;BME280;42240;53.626;55.886;2023-02-04T00:42:05;79816.84;;;-145.10;100.00
56334;BME280;42240;53.626;55.886;2023-02-04T00:43:40;79820.81;;;-145.10;100.00
56334;BME280;42240;53.626;55.886;2023-02-04T00:45:13;79812.88;;;-145.10;100.00
56334;BME280;42240;53.626;55.886;2023-02-04T00:46:46;79838.63;;;-145.10;100.00
56334;BME280;42240;53.626;55.886;2023-02-04T00:48:20;79854.44;;;-145.10;100.00
56334;BME280;42240;53.626;55.886;2023-02-04T00:49:53;79870.28;;;-145.10;100.00
56334;BME280;42240;53.626;55.886;2023-02-04T00:51:27;79911.84;;;-145.10;100.00
56334;BME280;42240;53.626;55.886;2023-02-04T00:53:00;79923.72;;;-145.10;100.00
56334;BME280;42240;53.626;55.886;2023-02-04T00:54:34;79961.31;;;-145.10;100.00
56334;BME280;42240;53.626;55.886;2023-02-04T00:56:07;79965.28;;;-145.10;100.00
56334;BME280;42240;53.626;55.886;2023-02-04T00:57:41;79971.22;;;-145.10;100.00
56334;BME280;42240;53.626;55.886;2023-02-04T00:59:14;79971.22;;;-145.10;100.00
56334;BME280;42240;53.626;55.886;2023-02-04T01:00:48;79977.16;;;-145.10;100.00
56334;BME280;42240;53.626;55.886;2023-02-04T01:02:21;79967.25;;;-145.10;100.00
56334;BME280;42240;53.626;55.886;2023-02-04T01:03:56;79963.28;;;-145.10;100.00
56334;BME280;42240;53.626;55.886;2023-02-04T01:05:29;79967.25;;;-145.10;100.00
56334;BME280;42240;53.626;55.886;2023-02-04T01:07:02;79967.25;;;-145.10;100.00
56334;BME280;42240;53.626;55.886;2023-02-04T01:08:35;79965.28;;;-145.10;100.00
56334;BME280;42240;53.626;55.886;2023-02-04T01:10:09;79963.28;;;-145.10;100.00
56334;BME280;42240;53.626;55.886;2023-02-04T01:11:42;79963.28;;;-145.10;100.00
56334;BME280;42240;53.626;55.886;2023-02-04T01:13:15;79947.47;;;-145.10;100.00
56334;BME280;42240;53.626;55.886;2023-02-04T01:14:48;79939.53;;;-145.10;100.00
56334;BME280;42240;53.626;55.886;2023-02-04T01:16:21;79957.34;;;-145.10;100.00
56334;BME280;42240;53.626;55.886;2023-02-04T01:17:55;79917.78;;;-145.10;100.00
56334;BME280;42240;53.626;55.886;2023-02-04T01:19:28;79905.91;;;-145.10;100.00
56334;BME280;42240;53.626;55.886;2023-02-04T01:21:01;79903.91;;;-145.10;100.00
56334;BME280;42240;53.626;55.886;2023-02-04T01:22:34;79894.03;;;-145.10;100.00
56334;BME280;42240;53.626;55.886;2023-02-04T01:24:07;79896.00;;;-145.10;100.00
56334;BME280;42240;53.626;55.886;2023-02-04T01:26:00;79892.06;;;-145.10;100.00
56334;BME280;42240;53.626;55.886;2023-02-04T01:27:33;79967.25;;;-145.10;100.00
56334;BME280;42240;53.626;55.886;2023-02-04T01:29:08;79919.75;;;-145.10;100.00
56334;BME280;42240;53.626;55.886;2023-02-04T01:30:41;79939.53;;;-145.10;100.00
56334;BME280;42240;53.626;55.886;2023-02-04T01:32:14;79935.59;;;-145.10;100.00
56334;BME280;42240;53.626;55.886;2023-02-04T01:33:47;79921.72;;;-145.10;100.00
56334;BME280;42240;53.626;55.886;2023-02-04T01:35:20;79919.75;;;-145.10;100.00
56334;BME280;42240;53.626;55.886;2023-02-04T01:36:53;79935.59;;;-145.10;100.00
56334;BME280;42240;53.626;55.886;2023-02-04T01:38:26;79947.47;;;-145.10;100.00
56334;BME280;42240;53.626;55.886;2023-02-04T01:39:59;79971.22;;;-145.10;100.00
56334;BME280;42240;53.626;55.886;2023-02-04T01:41:32;79955.38;;;-145.10;100.00
56334;BME280;42240;53.626;55.886;2023-02-04T01:43:05;80022.66;;;-145.10;100.00
56334;BME280;42240;53.626;55.886;2023-02-04T01:44:39;79927.66;;;-145.10;100.00
56334;BME280;42240;53.626;55.886;2023-02-04T01:46:12;79931.63;;;-145.10;100.00
56334;BME280;42240;53.626;55.886;2023-02-04T01:47:46;79941.53;;;-145.10;100.00
56334;BME280;42240;53.626;55.886;2023-02-04T01:49:19;79937.56;;;-145.10;100.00
56334;BME280;42240;53.626;55.886;2023-02-04T01:50:59;79921.72;;;-145.10;100.00
56334;BME280;42240;53.626;55.886;2023-02-04T01:52:36;79911.84;;;-145.10;100.00
56334;BME280;42240;53.626;55.886;2023-02-04T01:54:11;80010.78;;;-145.10;100.00
56334;BME280;42240;53.626;55.886;2023-02-04T01:55:46;79913.81;;;-145.10;100.00
56334;BME280;42240;53.626;55.886;2023-02-04T01:57:19;79917.78;;;-145.10;100.00
56334;BME280;42240;53.626;55.886;2023-02-04T01:58:54;79899.97;;;-145.10;100.00
56334;BME280;42240;53.626;55.886;2023-02-04T02:00:30;79882.16;;;-145.10;100.00
56334;BME280;42240;53.626;55.886;2023-02-04T02:04:18;79880.19;;;-145.10;100.00
56334;BME280;42240;53.626;55.886;2023-02-04T02:05:54;79888.09;;;-145.10;100.00
56334;BME280;42240;53.626;55.886;2023-02-04T02:07:30;79905.91;;;-145.10;100.00
56334;BME280;42240;53.626;55.886;2023-02-04T02:09:04;79939.53;;;-145.10;100.00
56334;BME280;42240;53.626;55.886;2023-02-04T02:10:39;79961.31;;;-145.10;100.00
56334;BME280;42240;53.626;55.886;2023-02-04T02:12:13;79957.34;;;-145.10;100.00
56334;BME280;42240;53.626;55.886;2023-02-04T02:13:46;80161.22;;;-145.10;100.00
56334;BME280;42240;53.626;55.886;2023-02-04T02:15:19;80032.56;;;-145.10;100.00
56334;BME280;42240;53.626;55.886;2023-02-04T02:16:53;80082.03;;;-145.10;100.00
56334;BME280;42240;53.626;55.886;2023-02-04T02:18:26;79983.09;;;-145.10;100.00
56334;BME280;42240;53.626;55.886;2023-02-04T02:20:00;79981.09;;;-145.10;100.00
56334;BME280;42240;53.626;55.886;2023-02-04T02:21:38;79959.34;;;-145.10;100.00
56334;BME280;42240;53.626;55.886;2023-02-04T02:25:12;79903.91;;;-145.10;100.00
56334;BME280;42240;53.626;55.886;2023-02-04T02:26:47;79886.13;;;-145.10;100.00
56334;BME280;42240;53.626;55.886;2023-02-04T02:28:21;79880.19;;;-145.10;100.00
56334;BME280;42240;53.626;55.886;2023-02-04T02:29:54;79868.31;;;-145.10;100.00
56334;BME280;42240;53.626;55.886;2023-02-04T02:31:28;79876.22;;;-145.10;100.00
56334;BME280;42240;53.626;55.886;2023-02-04T02:33:02;79852.47;;;-145.10;100.00
56334;BME280;42240;53.626;55.886;2023-02-04T02:34:36;80050.38;;;-145.10;100.00
56334;BME280;42240;53.626;55.886;2023-02-04T02:36:11;79818.81;;;-145.10;100.00
56334;BME280;42240;53.626;55.886;2023-02-04T02:37:44;79852.47;;;-145.10;100.00
56334;BME280;42240;53.626;55.886;2023-02-04T02:39:17;79947.47;;;-145.10;100.00
56334;BME280;42240;53.626;55.886;2023-02-04T02:40:50;79872.25;;;-145.10;100.00
56334;BME280;42240;53.626;55.886;2023-02-04T02:42:26;79884.13;;;-145.10;100.00
56334;BME280;42240;53.626;55.886;2023-02-04T02:44:00;79888.09;;;-145.10;100.00
56334;BME280;42240;53.626;55.886;2023-02-04T02:45:33;79888.09;;;-145.10;100.00
56334;BME280;42240;53.626;55.886;2023-02-04T02:47:11;79905.91;;;-145.10;100.00
56334;BME280;42240;53.626;55.886;2023-02-04T02:48:45;79907.88;;;-145.10;100.00
56334;BME280;42240;53.626;55.886;2023-02-04T02:50:24;79915.78;;;-145.10;100.00
56334;BME280;42240;53.626;55.886;2023-02-04T02:51:58;79943.50;;;-145.10;100.00
56334;BME280;42240;53.626;55.886;2023-02-04T02:53:31;79943.50;;;-145.10;100.00
56334;BME280;42240;53.626;55.886;2023-02-04T02:55:04;79959.34;;;-145.10;100.00
56334;BME280;42240;53.626;55.886;2023-02-04T02:56:38;79994.97;;;-145.10;100.00
56334;BME280;42240;53.626;55.886;2023-02-04T02:58:28;80002.88;;;-145.10;100.00
56334;BME280;42240;53.626;55.886;2023-02-04T03:00:13;80074.13;;;-145.10;100.00
56334;BME280;42240;53.626;55.886;2023-02-04T03:01:49;80016.72;;;-145.10;100.00
56334;BME280;42240;53.626;55.886;2023-02-04T03:03:26;80026.63;;;-145.10;100.00
56334;BME280;42240;53.626;55.886;2023-02-04T03:05:00;79998.91;;;-145.10;100.00
56334;BME280;42240;53.626;55.886;2023-02-04T03:06:35;79983.09;;;-145.10;100.00
56334;BME280;42240;53.626;55.886;2023-02-04T03:08:10;80084.03;;;-145.10;100.00
56334;BME280;42240;53.626;55.886;2023-02-04T03:09:45;79989.03;;;-145.10;100.00
56334;BME280;42240;53.626;55.886;2023-02-04T03:11:18;80010.78;;;-145.10;100.00
56334;BME280;42240;53.626;55.886;2023-02-04T03:12:52;80012.78;;;-145.10;100.00
56334;BME280;42240;53.626;55.886;2023-02-04T03:14:26;80004.84;;;-145.10;100.00
56334;BME280;42240;53.626;55.886;2023-02-04T03:15:59;80038.50;;;-145.10;100.00
56334;BME280;42240;53.626;55.886;2023-02-04T03:17:33;80066.22;;;-145.10;100.00
56334;BME280;42240;53.626;55.886;2023-02-04T03:19:07;80082.03;;;-145.10;100.00
56334;BME280;42240;53.626;55.886;2023-02-04T03:20:40;80072.16;;;-145.10;100.00
56334;BME280;42240;53.626;55.886;2023-02-04T03:22:14;80062.25;;;-145.10;100.00
56334;BME280;42240;53.626;55.886;2023-02-04T03:23:50;80062.25;;;-145.10;100.00
56334;BME280;42240;53.626;55.886;2023-02-04T03:25:24;80044.44;;;-145.10;100.00
56334;BME280;42240;53.626;55.886;2023-02-04T03:27:02;80038.50;;;-145.10;100.00
56334;BME280;42240;53.626;55.886;2023-02-04T03:28:39;80028.59;;;-145.10;100.00
56334;BME280;42240;53.626;55.886;2023-02-04T03:30:13;80044.44;;;-145.10;100.00
56334;BME280;42240;53.626;55.886;2023-02-04T03:31:46;80054.34;;;-145.10;100.00
56334;BME280;42240;53.626;55.886;2023-02-04T03:33:21;80056.31;;;-145.10;100.00
56334;BME280;42240;53.626;55.886;2023-02-04T03:34:54;80078.09;;;-145.10;100.00
56334;BME280;42240;53.626;55.886;2023-02-04T03:36:27;80068.19;;;-145.10;100.00
56334;BME280;42240;53.626;55.886;2023-02-04T03:38:00;80058.28;;;-145.10;100.00
56334;BME280;42240;53.626;55.886;2023-02-04T03:39:34;80206.72;;;-145.10;100.00
56334;BME280;42240;53.626;55.886;2023-02-04T03:41:07;80192.88;;;-145.10;100.00
56334;BME280;42240;53.626;55.886;2023-02-04T03:42:40;80200.78;;;-145.10;100.00
56334;BME280;42240;53.626;55.886;2023-02-04T03:44:13;80194.84;;;-145.10;100.00
56334;BME280;42240;53.626;55.886;2023-02-04T03:45:46;80204.75;;;-145.10;100.00
56334;BME280;42240;53.626;55.886;2023-02-04T03:47:19;80218.59;;;-145.10;100.00
56334;BME280;42240;53.626;55.886;2023-02-04T03:48:52;80204.75;;;-145.10;100.00
56334;BME280;42240;53.626;55.886;2023-02-04T03:50:25;80363.09;;;-145.10;100.00
56334;BME280;42240;53.626;55.886;2023-02-04T03:51:58;80224.53;;;-145.10;100.00
56334;BME280;42240;53.626;55.886;2023-02-04T03:53:32;80371.00;;;-145.10;100.00
56334;BME280;42240;53.626;55.886;2023-02-04T03:55:05;80208.72;;;-145.10;100.00
56334;BME280;42240;53.626;55.886;2023-02-04T03:56:38;80331.41;;;-145.10;100.00
56334;BME280;42240;53.626;55.886;2023-02-04T03:58:11;80208.72;;;-145.10;100.00
56334;BME280;42240;53.626;55.886;2023-02-04T03:59:44;80210.69;;;-145.10;100.00
56334;BME280;42240;53.626;55.886;2023-02-04T04:01:17;80214.66;;;-145.10;100.00
56334;BME280;42240;53.626;55.886;2023-02-04T04:02:50;80204.75;;;-145.10;100.00
56334;BME280;42240;53.626;55.886;2023-02-04T04:04:23;80177.03;;;-145.10;100.00
56334;BME280;42240;53.626;55.886;2023-02-04T04:05:57;80165.16;;;-145.10;100.00
56334;BME280;42240;53.626;55.886;2023-02-04T04:07:30;80141.41;;;-145.10;100.00
56334;BME280;42240;53.626;55.886;2023-02-04T04:09:03;80137.47;;;-145.10;100.00
56334;BME280;42240;53.626;55.886;2023-02-04T04:10:36;80121.63;;;-145.10;100.00
56334;BME280;42240;53.626;55.886;2023-02-04T04:12:09;80105.78;;;-145.10;100.00
56334;BME280;42240;53.626;55.886;2023-02-04T04:13:42;80093.91;;;-145.10;100.00
56334;BME280;42240;53.626;55.886;2023-02-04T04:15:15;80078.09;;;-145.10;100.00
56334;BME280;42240;53.626;55.886;2023-02-04T04:16:49;80064.22;;;-145.10;100.00
56334;BME280;42240;53.626;55.886;2023-02-04T04:18:22;80036.53;;;-145.10;100.00
56334;BME280;42240;53.626;55.886;2023-02-04T04:19:55;80022.66;;;-145.10;100.00
56334;BME280;42240;53.626;55.886;2023-02-04T04:21:28;80022.66;;;-145.10;100.00
56334;BME280;42240;53.626;55.886;2023-02-04T04:23:01;80042.47;;;-145.10;100.00
56334;BME280;42240;53.626;55.886;2023-02-04T04:24:34;80060.28;;;-145.10;100.00
56334;BME280;42240;53.626;55.886;2023-02-04T04:26:07;80062.25;;;-145.10;100.00
56334;BME280;42240;53.626;55.886;2023-02-04T04:27:40;80080.06;;;-145.10;100.00
56334;BME280;42240;53.626;55.886;2023-02-04T04:29:13;80084.03;;;-145.10;100.00
56334;BME280;42240;53.626;55.886;2023-02-04T04:30:46;80095.91;;;-145.10;100.00
56334;BME280;42240;53.626;55.886;2023-02-04T04:32:20;80080.06;;;-145.10;100.00
56334;BME280;42240;53.626;55.886;2023-02-04T04:33:53;80074.13;;;-145.10;100.00
56334;BME280;42240;53.626;55.886;2023-02-04T04:35:26;80064.22;;;-145.10;100.00
56334;BME280;42240;53.626;55.886;2023-02-04T04:36:59;80052.34;;;-145.10;100.00
56334;BME280;42240;53.626;55.886;2023-02-04T04:38:32;80054.34;;;-145.10;100.00
56334;BME280;42240;53.626;55.886;2023-02-04T04:40:05;80216.63;;;-145.10;100.00
56334;BME280;42240;53.626;55.886;2023-02-04T04:41:39;80014.75;;;-145.10;100.00
56334;BME280;42240;53.626;55.886;2023-02-04T04:43:11;80002.88;;;-145.10;100.00
56334;BME280;42240;53.626;55.886;2023-02-04T04:44:45;79975.16;;;-145.10;100.00
56334;BME280;42240;53.626;55.886;2023-02-04T04:46:18;79945.47;;;-145.10;100.00
56334;BME280;42240;53.626;55.886;2023-02-04T04:47:51;79915.78;;;-145.10;100.00
56334;BME280;42240;53.626;55.886;2023-02-04T04:49:24;79911.84;;;-145.10;100.00
56334;BME280;42240;53.626;55.886;2023-02-04T04:50:57;79876.22;;;-145.10;100.00
56334;BME280;42240;53.626;55.886;2023-02-04T04:52:30;79882.16;;;-145.10;100.00
56334;BME280;42240;53.626;55.886;2023-02-04T04:54:03;79868.31;;;-145.10;100.00
56334;BME280;42240;53.626;55.886;2023-02-04T04:55:37;79830.69;;;-145.10;100.00
56334;BME280;42240;53.626;55.886;2023-02-04T04:57:10;79727.78;;;-145.10;100.00
56334;BME280;42240;53.626;55.886;2023-02-04T04:58:43;79581.34;;;-145.10;100.00
56334;BME280;42240;53.626;55.886;2023-02-04T05:00:18;79432.94;;;-145.10;97.42
56334;BME280;42240;53.626;55.886;2023-02-04T05:01:52;79355.78;;;-145.10;93.23
56334;BME280;42240;53.626;55.886;2023-02-04T05:03:25;79314.22;;;-145.10;88.77
56334;BME280;42240;53.626;55.886;2023-02-04T05:04:58;79242.97;;;-145.10;85.20
56334;BME280;42240;53.626;55.886;2023-02-04T05:06:31;79250.91;;;-145.10;80.91
56334;BME280;42240;53.626;55.886;2023-02-04T05:08:05;79199.44;;;-145.10;81.02
56334;BME280;42240;53.626;55.886;2023-02-04T05:09:39;79132.19;;;-145.10;78.81
56334;BME280;42240;53.626;55.886;2023-02-04T05:11:12;79120.31;;;-145.10;76.33
56334;BME280;42240;53.626;55.886;2023-02-04T05:12:45;79072.81;;;-145.10;76.98
56334;BME280;42240;53.626;55.886;2023-02-04T05:14:18;79023.34;;;-145.10;74.82
56334;BME280;42240;53.626;55.886;2023-02-04T05:15:51;78975.88;;;-145.10;72.65
56334;BME280;42240;53.626;55.886;2023-02-04T05:17:24;78964.00;;;-145.10;67.69
56334;BME280;42240;53.626;55.886;2023-02-04T05:19:00;78962.00;;;-145.10;63.03
56334;BME280;42240;53.626;55.886;2023-02-04T05:20:33;78936.28;;;-145.10;62.21
56334;BME280;42240;53.626;55.886;2023-02-04T05:22:06;78867.03;;;-145.10;62.06
56334;BME280;42240;53.626;55.886;2023-02-04T05:23:39;78823.53;;;-145.10;60.41
56334;BME280;42240;53.626;55.886;2023-02-04T05:25:12;78738.44;;;-145.10;59.00
56334;BME280;42240;53.626;55.886;2023-02-04T05:26:48;78692.94;;;-145.10;57.45
56334;BME280;42240;53.626;55.886;2023-02-04T05:28:21;78669.19;;;-145.10;56.87
56334;BME280;42240;53.626;55.886;2023-02-04T05:29:54;78633.59;;;-145.10;55.09
56334;BME280;42240;53.626;55.886;2023-02-04T05:31:27;78671.19;;;-145.10;53.34
56334;BME280;42240;53.626;55.886;2023-02-04T05:33:00;78582.16;;;-145.10;52.44
56334;BME280;42240;53.626;55.886;2023-02-04T05:34:33;78570.28;;;-145.10;51.74
56334;BME280;42240;53.626;55.886;2023-02-04T05:36:06;78503.00;;;-145.10;51.02
56334;BME280;42240;53.626;55.886;2023-02-04T05:37:40;78469.38;;;-145.10;50.05
56334;BME280;42240;53.626;55.886;2023-02-04T05:39:13;78431.78;;;-145.10;49.38
56334;BME280;42240;53.626;55.886;2023-02-04T05:40:46;78410.03;;;-145.10;48.79
56334;BME280;42240;53.626;55.886;2023-02-04T05:42:19;78370.47;;;-145.10;48.21
56334;BME280;42240;53.626;55.886;2023-02-04T05:43:52;78348.72;;;-145.10;48.06
56334;BME280;42240;53.626;55.886;2023-02-04T05:45:25;78328.94;;;-145.10;47.18
56334;BME280;42240;53.626;55.886;2023-02-04T05:46:58;78370.47;;;-145.10;46.38
56334;BME280;42240;53.626;55.886;2023-02-04T05:48:31;78319.03;;;-145.10;46.75
56334;BME280;42240;53.626;55.886;2023-02-04T05:50:05;78293.31;;;-145.10;46.68
56334;BME280;42240;53.626;55.886;2023-02-04T05:51:38;78287.38;;;-145.10;46.09
56334;BME280;42240;53.626;55.886;2023-02-04T05:53:12;78233.97;;;-145.10;46.09
56334;BME280;42240;53.626;55.886;2023-02-04T05:54:45;78247.81;;;-145.10;45.71
56334;BME280;42240;53.626;55.886;2023-02-04T05:56:18;78239.91;;;-145.10;45.21
56334;BME280;42240;53.626;55.886;2023-02-04T05:57:51;78277.50;;;-145.10;44.77
56334;BME280;42240;53.626;55.886;2023-02-04T05:59:24;78324.97;;;-145.10;44.60
56334;BME280;42240;53.626;55.886;2023-02-04T06:00:59;78437.72;;;-145.10;44.80
56334;BME280;42240;53.626;55.886;2023-02-04T06:02:33;78336.84;;;-145.10;44.78
56334;BME280;42240;53.626;55.886;2023-02-04T06:04:06;78396.19;;;-145.10;44.64
56334;BME280;42240;53.626;55.886;2023-02-04T06:05:39;78360.56;;;-145.10;44.37
56334;BME280;42240;53.626;55.886;2023-02-04T06:07:12;78421.91;;;-145.10;44.15
56334;BME280;42240;53.626;55.886;2023-02-04T06:08:45;78471.34;;;-145.10;44.60
56334;BME280;42240;53.626;55.886;2023-02-04T06:10:18;78483.22;;;-145.10;44.94
56334;BME280;42240;53.626;55.886;2023-02-04T06:11:52;78497.06;;;-145.10;45.03
56334;BME280;42240;53.626;55.886;2023-02-04T06:13:26;78493.13;;;-145.10;45.42
56334;BME280;42240;53.626;55.886;2023-02-04T06:14:59;78495.09;;;-145.10;44.94
56334;BME280;42240;53.626;55.886;2023-02-04T06:16:32;78503.00;;;-145.10;45.56
56334;BME280;42240;53.626;55.886;2023-02-04T06:18:05;78508.94;;;-145.10;45.06
56334;BME280;42240;53.626;55.886;2023-02-04T06:19:38;78435.75;;;-145.10;44.62
56334;BME280;42240;53.626;55.886;2023-02-04T06:21:11;78427.84;;;-145.10;44.66
56334;BME280;42240;53.626;55.886;2023-02-04T06:22:44;78380.34;;;-145.10;44.04
56334;BME280;42240;53.626;55.886;2023-02-04T06:24:19;78324.97;;;-145.10;44.27
56334;BME280;42240;53.626;55.886;2023-02-04T06:25:52;78323.00;;;-145.10;43.44
56334;BME280;42240;53.626;55.886;2023-02-04T06:27:25;78323.00;;;-145.10;43.39
56334;BME280;42240;53.626;55.886;2023-02-04T06:28:58;78267.59;;;-145.10;43.68
56334;BME280;42240;53.626;55.886;2023-02-04T06:30:33;78226.06;;;-145.10;43.38
56334;BME280;42240;53.626;55.886;2023-02-04T06:32:07;78178.56;;;-145.10;42.76
56334;BME280;42240;53.626;55.886;2023-02-04T06:33:40;78174.63;;;-145.10;42.66
56334;BME280;42240;53.626;55.886;2023-02-04T06:35:13;78253.75;;;-145.10;42.16
56334;BME280;42240;53.626;55.886;2023-02-04T06:36:48;78259.69;;;-145.10;42.47
56334;BME280;42240;53.626;55.886;2023-02-04T06:38:21;78451.56;;;-145.10;42.59
56334;BME280;42240;53.626;55.886;2023-02-04T06:39:54;78503.00;;;-145.10;42.68
56334;BME280;42240;53.626;55.886;2023-02-04T06:41:29;78530.72;;;-145.10;43.65
56334;BME280;42240;53.626;55.886;2023-02-04T06:43:02;78516.88;;;-145.10;43.62
56334;BME280;42240;53.626;55.886;2023-02-04T06:44:35;78487.19;;;-145.10;44.15
56334;BME280;42240;53.626;55.886;2023-02-04T06:46:08;78483.22;;;-145.10;43.68
56334;BME280;42240;53.626;55.886;2023-02-04T06:47:41;78499.06;;;-145.10;43.91
56334;BME280;42240;53.626;55.886;2023-02-04T06:49:14;78503.00;;;-145.10;43.74
56334;BME280;42240;53.626;55.886;2023-02-04T06:50:47;78536.66;;;-145.10;43.33
56334;BME280;42240;53.626;55.886;2023-02-04T06:52:20;78546.53;;;-145.10;44.02
56334;BME280;42240;53.626;55.886;2023-02-04T06:53:53;78586.09;;;-145.10;43.83
56334;BME280;42240;53.626;55.886;2023-02-04T06:55:27;78609.84;;;-145.10;44.10
56334;BME280;42240;53.626;55.886;2023-02-04T06:57:00;78704.81;;;-145.10;43.94
56334;BME280;42240;53.626;55.886;2023-02-04T06:58:38;78651.38;;;-145.10;44.28
56334;BME280;42240;53.626;55.886;2023-02-04T07:00:11;78647.44;;;-145.10;45.03
56334;BME280;42240;53.626;55.886;2023-02-04T07:01:45;78661.28;;;-145.10;44.66
56334;BME280;42240;53.626;55.886;2023-02-04T07:03:18;78710.75;;;-145.10;44.68
56334;BME280;42240;53.626;55.886;2023-02-04T07:04:51;78661.28;;;-145.10;44.98
56334;BME280;42240;53.626;55.886;2023-02-04T07:06:24;78653.38;;;-145.10;45.30
56334;BME280;42240;53.626;55.886;2023-02-04T07:07:57;78609.84;;;-145.10;45.29
56334;BME280;42240;53.626;55.886;2023-02-04T07:09:30;78566.31;;;-145.10;45.26
56334;BME280;42240;53.626;55.886;2023-02-04T07:11:03;78526.75;;;-145.10;44.81
56334;BME280;42240;53.626;55.886;2023-02-04T07:12:36;78546.53;;;-145.10;44.50
56334;BME280;42240;53.626;55.886;2023-02-04T07:14:09;78506.97;;;-145.10;44.92
56334;BME280;42240;53.626;55.886;2023-02-04T07:15:42;78594.03;;;-145.10;44.36
56334;BME280;42240;53.626;55.886;2023-02-04T07:17:16;78653.38;;;-145.10;43.27
56334;BME280;42240;53.626;55.886;2023-02-04T07:18:49;78677.13;;;-145.10;43.15
56334;BME280;42240;53.626;55.886;2023-02-04T07:20:22;78748.34;;;-145.10;43.23
56334;BME280;42240;53.626;55.886;2023-02-04T07:21:55;78825.50;;;-145.10;43.98
56334;BME280;42240;53.626;55.886;2023-02-04T07:23:28;78890.78;;;-145.10;44.03
56334;BME280;42240;53.626;55.886;2023-02-04T07:25:01;78898.69;;;-145.10;44.71
56334;BME280;42240;53.626;55.886;2023-02-04T07:26:35;78912.56;;;-145.10;45.17
56334;BME280;42240;53.626;55.886;2023-02-04T07:28:08;78833.41;;;-145.10;45.59
56334;BME280;42240;53.626;55.886;2023-02-04T07:29:41;78774.06;;;-145.10;45.58
56334;BME280;42240;53.626;55.886;2023-02-04T07:31:14;78720.63;;;-145.10;45.40
56334;BME280;42240;53.626;55.886;2023-02-04T07:32:47;78681.06;;;-145.10;44.89
56334;BME280;42240;53.626;55.886;2023-02-04T07:34:21;78712.72;;;-145.10;45.58
56334;BME280;42240;53.626;55.886;2023-02-04T07:35:54;78780.00;;;-145.10;44.46
56334;BME280;42240;53.626;55.886;2023-02-04T07:37:28;78809.66;;;-145.10;45.05
56334;BME280;42240;53.626;55.886;2023-02-04T07:39:02;78841.31;;;-145.10;45.62
56334;BME280;42240;53.626;55.886;2023-02-04T07:40:35;78819.56;;;-145.10;46.00
56334;BME280;42240;53.626;55.886;2023-02-04T07:42:09;78867.03;;;-145.10;46.15
56334;BME280;42240;53.626;55.886;2023-02-04T07:43:49;78867.03;;;-145.10;46.26
56334;BME280;42240;53.626;55.886;2023-02-04T07:45:22;78843.31;;;-145.10;46.44
56334;BME280;42240;53.626;55.886;2023-02-04T07:46:55;78803.72;;;-145.10;46.39
56334;BME280;42240;53.626;55.886;2023-02-04T07:48:28;78710.75;;;-145.10;46.77
56334;BME280;42240;53.626;55.886;2023-02-04T07:50:02;78671.19;;;-145.10;46.42
56334;BME280;42240;53.626;55.886;2023-02-04T07:51:35;78665.25;;;-145.10;46.29
56334;BME280;42240;53.626;55.886;2023-02-04T07:53:08;78661.28;;;-145.10;45.92
56334;BME280;42240;53.626;55.886;2023-02-04T07:54:42;78688.97;;;-145.10;45.96
56334;BME280;42240;53.626;55.886;2023-02-04T07:56:15;78692.94;;;-145.10;45.62